Chickasaw, Iowa
Current Conditions -  °F | °C
As of 7:15 AM on Sunday 23 Nov 2014 (Local Time) from KCCY Reporting Station
Haze Haze  
Wind Chill: 10°   Ceiling: 500
Heat Index: 10°   Visibility: 5mi
Dew Point: 10°   Wind: 13mph
Humidity: 100%   Direction: 190°S
Pressure: 29.53"   Gusts: 20mph
Location:  43.0386°N, 92.4951°W
Report Text: KCCY 231315Z AUTO 19011G17KT 5SM BR OVC005 10/10 A2953 RMK AO2
Loading
Personal Weather Stations






























Interactive Weather Map New forecast layout! Learn more

10-Day Weather Forecast

Advertisements
Track Severe Weather on mobile